Terminal Aerodrome Forecast
Issued by NWS Sioux Falls, SD

Current Version | Previous Version | Text Only | Print | Product List | Glossary On
Versions: 1 2 3 4 5 6 7 8 9 10 11 12 13 14
000
FTUS43 KFSD 192337
TAFHON
TAF
KHON 192337Z 2000/2024 16011KT P6SM OVC200
     FM200300 16013KT P6SM OVC150 WS009/19040KT
     FM200600 16013KT P6SM OVC150 WS014/20041KT
     FM200800 16013KT P6SM OVC100
     FM201500 28012KT P6SM OVC050
     FM201800 30016G24KT P6SM SCT250=

USA.gov is the U.S. government's official web portal to all federal, state and local government web resources and services.